PWSweather.com
Personal Weather Stations
Station Observations
MIKESPOST
YorkGB

YorkGB

Lat: 53.9577018, Lon: -1.0822855

Elevation: 0

Station Type: WH1081

High Low Average
Temperature 45.9°F7.7°C 41.4°F5.2°C 43.3°F6.3°C
Dew Point 45.6°F7.6°C 34.8°F1.6°C 39.0°F3.9°C
Winds 6.5 mph 10.5 kmh 0.3 mph 0.5 kmh 4.0 mph SW6.4 kmh SW
Wind Gusts 20.5 mph33.0 kmh 1.0 mph1.6 kmh 8.0 mph12.9 kmh
Humidity 99% 76% 85%
Pressure 30.38 in1028.8 mb 30.04 in1017.3 mb -
Precipitation 0.96 in24.4 mm - -
Hour Temp Dew Point Humidity Winds Wind Gusts Pressure Precip Precip Rate Daily Precip Total
12:07 AM 41.5°F5.3°C 35.5°F1.9°C 79% 2.5 mph NE4.0 kmh NE 4.7 mph7.6 kmh 30.38 in1028.8 mb 0.00 in0.0 mm 0.00 in/hr0.0 mm/hr 0.00 in0.0 mm
12:17 AM 41.5°F5.3°C 35.5°F1.9°C 79% 3.7 mph W6.0 kmh W 8.1 mph13.0 kmh 30.37 in1028.4 mb 0.00 in0.0 mm 0.00 in/hr0.0 mm/hr 0.00 in0.0 mm
12:27 AM 41.4°F5.2°C 35.3°F1.8°C 79% 3.2 mph N5.1 kmh N 5.7 mph9.2 kmh 30.37 in1028.4 mb 0.00 in0.0 mm 0.00 in/hr0.0 mm/hr 0.00 in0.0 mm
12:37 AM 41.4°F5.2°C 35.0°F1.7°C 78% 4.7 mph N7.6 kmh N 13.8 mph22.2 kmh 30.37 in1028.4 mb 0.00 in0.0 mm 0.00 in/hr0.0 mm/hr 0.00 in0.0 mm
12:47 AM 41.5°F5.3°C 35.5°F1.9°C 79% 5.9 mph NW9.5 kmh NW 20.5 mph33.0 kmh 30.36 in1028.1 mb 0.00 in0.0 mm 0.00 in/hr0.0 mm/hr 0.00 in0.0 mm
12:57 AM 41.7°F5.4°C 35.3°F1.8°C 78% 5.3 mph W8.5 kmh W 10.4 mph16.7 kmh 30.35 in1027.8 mb 0.00 in0.0 mm 0.00 in/hr0.0 mm/hr 0.00 in0.0 mm
01:07 AM 41.5°F5.3°C 35.1°F1.7°C 78% 3.5 mph W5.6 kmh W 5.7 mph9.2 kmh 30.35 in1027.8 mb 0.00 in0.0 mm 0.00 in/hr0.0 mm/hr 0.00 in0.0 mm
01:17 AM 41.7°F5.4°C 35.3°F1.8°C 78% 3.5 mph NW5.6 kmh NW 5.7 mph9.2 kmh 30.36 in1028.1 mb 0.00 in0.0 mm 0.00 in/hr0.0 mm/hr 0.00 in0.0 mm
01:27 AM 41.7°F5.4°C 35.3°F1.8°C 78% 3.4 mph SW5.5 kmh SW 6.7 mph10.8 kmh 30.35 in1027.8 mb 0.00 in0.0 mm 0.00 in/hr0.0 mm/hr 0.00 in0.0 mm
01:37 AM 41.9°F5.5°C 35.5°F1.9°C 78% 5.4 mph S8.7 kmh S 11.4 mph18.3 kmh 30.35 in1027.8 mb 0.00 in0.0 mm 0.00 in/hr0.0 mm/hr 0.00 in0.0 mm
01:47 AM 41.9°F5.5°C 35.2°F1.8°C 77% 6.4 mph NE10.3 kmh NE 18.1 mph29.1 kmh 30.35 in1027.8 mb 0.00 in0.0 mm 0.00 in/hr0.0 mm/hr 0.00 in0.0 mm
01:57 AM 41.9°F5.5°C 35.2°F1.8°C 77% 4.4 mph NW7.1 kmh NW 8.1 mph13.0 kmh 30.35 in1027.8 mb 0.00 in0.0 mm 0.00 in/hr0.0 mm/hr 0.00 in0.0 mm
02:07 AM 41.9°F5.5°C 35.2°F1.8°C 77% 4.7 mph N7.6 kmh N 11.4 mph18.3 kmh 30.35 in1027.8 mb 0.00 in0.0 mm 0.00 in/hr0.0 mm/hr 0.00 in0.0 mm
02:17 AM 41.9°F5.5°C 35.2°F1.8°C 77% 3.9 mph SW6.3 kmh SW 8.1 mph13.0 kmh 30.34 in1027.4 mb 0.00 in0.0 mm 0.00 in/hr0.0 mm/hr 0.00 in0.0 mm
02:27 AM 42.1°F5.6°C 35.0°F1.7°C 76% 5.1 mph NW8.2 kmh NW 13.8 mph22.2 kmh 30.34 in1027.4 mb 0.00 in0.0 mm 0.00 in/hr0.0 mm/hr 0.00 in0.0 mm
02:37 AM 41.9°F5.5°C 34.8°F1.6°C 76% 5.2 mph WSW8.4 kmh WSW 13.8 mph22.2 kmh 30.34 in1027.4 mb 0.00 in0.0 mm 0.00 in/hr0.0 mm/hr 0.00 in0.0 mm
02:47 AM 42.1°F5.6°C 35.0°F1.7°C 76% 4.8 mph SW7.7 kmh SW 13.8 mph22.2 kmh 30.32 in1026.8 mb 0.00 in0.0 mm 0.00 in/hr0.0 mm/hr 0.00 in0.0 mm
02:57 AM 42.1°F5.6°C 35.0°F1.7°C 76% 4.6 mph WNW7.4 kmh WNW 8.1 mph13.0 kmh 30.31 in1026.4 mb 0.00 in0.0 mm 0.00 in/hr0.0 mm/hr 0.00 in0.0 mm
03:07 AM 42.1°F5.6°C 35.3°F1.8°C 77% 4.4 mph WSW7.1 kmh WSW 6.7 mph10.8 kmh 30.31 in1026.4 mb 0.00 in0.0 mm 0.00 in/hr0.0 mm/hr 0.00 in0.0 mm
03:17 AM 41.9°F5.5°C 35.2°F1.8°C 77% 4.8 mph NW7.7 kmh NW 8.1 mph13.0 kmh 30.30 in1026.1 mb 0.00 in0.0 mm 0.00 in/hr0.0 mm/hr 0.00 in0.0 mm
03:27 AM 41.9°F5.5°C 35.2°F1.8°C 77% 3.6 mph N5.8 kmh N 6.7 mph10.8 kmh 30.31 in1026.4 mb 0.00 in0.0 mm 0.00 in/hr0.0 mm/hr 0.00 in0.0 mm
03:37 AM 41.9°F5.5°C 35.2°F1.8°C 77% 5.4 mph N8.7 kmh N 10.4 mph16.7 kmh 30.30 in1026.1 mb 0.00 in0.0 mm 0.00 in/hr0.0 mm/hr 0.00 in0.0 mm
03:47 AM 41.9°F5.5°C 35.2°F1.8°C 77% 3.9 mph NE6.3 kmh NE 8.1 mph13.0 kmh 30.30 in1026.1 mb 0.00 in0.0 mm 0.00 in/hr0.0 mm/hr 0.00 in0.0 mm
03:57 AM 42.1°F5.6°C 35.3°F1.8°C 77% 4.4 mph SSW7.1 kmh SSW 6.7 mph10.8 kmh 30.31 in1026.4 mb 0.00 in0.0 mm 0.00 in/hr0.0 mm/hr 0.00 in0.0 mm
04:07 AM 42.1°F5.6°C 35.7°F2.1°C 78% 5.6 mph WSW9.0 kmh WSW 16.1 mph25.9 kmh 30.30 in1026.1 mb 0.00 in0.0 mm 0.00 in/hr0.0 mm/hr 0.00 in0.0 mm
04:17 AM 42.1°F5.6°C 35.7°F2.1°C 78% 3.6 mph NW5.8 kmh NW 6.7 mph10.8 kmh 30.30 in1026.1 mb 0.00 in0.0 mm 0.00 in/hr0.0 mm/hr 0.00 in0.0 mm
04:27 AM 42.1°F5.6°C 35.7°F2.1°C 78% 4.2 mph NW6.8 kmh NW 9.1 mph14.6 kmh 30.29 in1025.7 mb 0.00 in0.0 mm 0.00 in/hr0.0 mm/hr 0.00 in0.0 mm
04:37 AM 42.1°F5.6°C 35.7°F2.1°C 78% 4.1 mph NE6.6 kmh NE 5.7 mph9.2 kmh 30.29 in1025.7 mb 0.00 in0.0 mm 0.00 in/hr0.0 mm/hr 0.00 in0.0 mm
04:47 AM 42.1°F5.6°C 35.7°F2.1°C 78% 4.0 mph NW6.4 kmh NW 9.1 mph14.6 kmh 30.28 in1025.4 mb 0.00 in0.0 mm 0.00 in/hr0.0 mm/hr 0.00 in0.0 mm
04:57 AM 42.3°F5.7°C 35.8°F2.1°C 78% 4.2 mph W6.8 kmh W 10.4 mph16.7 kmh 30.28 in1025.4 mb 0.00 in0.0 mm 0.00 in/hr0.0 mm/hr 0.00 in0.0 mm
05:07 AM 42.3°F5.7°C 35.8°F2.1°C 78% 5.0 mph SW8.0 kmh SW 9.1 mph14.6 kmh 30.28 in1025.4 mb 0.00 in0.0 mm 0.00 in/hr0.0 mm/hr 0.00 in0.0 mm
05:17 AM 42.4°F5.8°C 35.7°F2.1°C 77% 5.4 mph ESE8.7 kmh ESE 14.8 mph23.8 kmh 30.29 in1025.7 mb 0.00 in0.0 mm 0.00 in/hr0.0 mm/hr 0.00 in0.0 mm
05:27 AM 42.4°F5.8°C 35.7°F2.1°C 77% 4.8 mph W7.7 kmh W 9.1 mph14.6 kmh 30.28 in1025.4 mb 0.00 in0.0 mm 0.00 in/hr0.0 mm/hr 0.00 in0.0 mm
05:37 AM 42.6°F5.9°C 35.9°F2.2°C 77% 4.5 mph N7.2 kmh N 10.4 mph16.7 kmh 30.28 in1025.4 mb 0.00 in0.0 mm 0.00 in/hr0.0 mm/hr 0.00 in0.0 mm
05:47 AM 42.6°F5.9°C 36.2°F2.3°C 78% 5.1 mph SE8.2 kmh SE 10.4 mph16.7 kmh 30.27 in1025.1 mb 0.00 in0.0 mm 0.00 in/hr0.0 mm/hr 0.00 in0.0 mm
05:57 AM 42.8°F6.0°C 36.0°F2.2°C 77% 4.5 mph SW7.2 kmh SW 13.8 mph22.2 kmh 30.28 in1025.4 mb 0.00 in0.0 mm 0.00 in/hr0.0 mm/hr 0.00 in0.0 mm
06:07 AM 42.8°F6.0°C 35.7°F2.1°C 76% 6.5 mph SSW10.5 kmh SSW 18.1 mph29.1 kmh 30.28 in1025.4 mb 0.00 in0.0 mm 0.00 in/hr0.0 mm/hr 0.00 in0.0 mm
06:17 AM 43.0°F6.1°C 35.9°F2.2°C 76% 5.3 mph W8.5 kmh W 12.4 mph20.0 kmh 30.27 in1025.1 mb 0.00 in0.0 mm 0.00 in/hr0.0 mm/hr 0.00 in0.0 mm
06:27 AM 43.0°F6.1°C 36.2°F2.3°C 77% 5.0 mph E8.0 kmh E 13.8 mph22.2 kmh 30.27 in1025.1 mb 0.00 in0.0 mm 0.00 in/hr0.0 mm/hr 0.00 in0.0 mm
06:37 AM 43.2°F6.2°C 36.4°F2.4°C 77% 4.5 mph SE7.2 kmh SE 9.1 mph14.6 kmh 30.27 in1025.1 mb 0.00 in0.0 mm 0.00 in/hr0.0 mm/hr 0.00 in0.0 mm
06:47 AM 43.2°F6.2°C 36.7°F2.6°C 78% 3.8 mph SW6.1 kmh SW 6.7 mph10.8 kmh 30.27 in1025.1 mb 0.00 in0.0 mm 0.00 in/hr0.0 mm/hr 0.00 in0.0 mm
06:57 AM 43.3°F6.3°C 36.9°F2.7°C 78% 4.5 mph E7.2 kmh E 10.4 mph16.7 kmh 30.27 in1025.1 mb 0.00 in0.0 mm 0.00 in/hr0.0 mm/hr 0.00 in0.0 mm
07:07 AM 43.3°F6.3°C 36.6°F2.6°C 77% 5.5 mph SSE8.9 kmh SSE 13.8 mph22.2 kmh 30.26 in1024.7 mb 0.00 in0.0 mm 0.00 in/hr0.0 mm/hr 0.00 in0.0 mm
07:17 AM 43.5°F6.4°C 37.1°F2.8°C 78% 3.5 mph SSW5.6 kmh SSW 11.4 mph18.3 kmh 30.26 in1024.7 mb 0.00 in0.0 mm 0.00 in/hr0.0 mm/hr 0.00 in0.0 mm
07:27 AM 43.3°F6.3°C 37.5°F3.1°C 80% 4.3 mph N6.9 kmh N 12.4 mph20.0 kmh 30.25 in1024.4 mb 0.00 in0.0 mm 0.00 in/hr0.0 mm/hr 0.00 in0.0 mm
07:37 AM 43.3°F6.3°C 37.9°F3.3°C 81% 3.8 mph N6.1 kmh N 10.4 mph16.7 kmh 30.24 in1024.0 mb 0.00 in0.0 mm 0.00 in/hr0.0 mm/hr 0.00 in0.0 mm
07:47 AM 43.3°F6.3°C 38.2°F3.4°C 82% 5.3 mph W8.5 kmh W 18.1 mph29.1 kmh 30.24 in1024.0 mb 0.00 in0.0 mm 0.00 in/hr0.0 mm/hr 0.00 in0.0 mm
07:57 AM 43.3°F6.3°C 38.5°F3.6°C 83% 3.8 mph NNW6.1 kmh NNW 5.7 mph9.2 kmh 30.24 in1024.0 mb 0.00 in0.0 mm 0.00 in/hr0.0 mm/hr 0.00 in0.0 mm
08:07 AM 43.3°F6.3°C 38.5°F3.6°C 83% 4.6 mph W7.4 kmh W 8.1 mph13.0 kmh 30.23 in1023.7 mb 0.00 in0.0 mm 0.00 in/hr0.0 mm/hr 0.00 in0.0 mm
08:17 AM 43.5°F6.4°C 38.7°F3.7°C 83% 3.6 mph NNE5.8 kmh NNE 6.7 mph10.8 kmh 30.23 in1023.7 mb 0.00 in0.0 mm 0.00 in/hr0.0 mm/hr 0.00 in0.0 mm
07:37 PM 44.8°F7.1°C 44.5°F6.9°C 99% 2.9 mph WSW4.7 kmh WSW 6.7 mph10.8 kmh 30.05 in1017.6 mb 0.00 in0.0 mm 0.00 in/hr0.0 mm/hr 0.96 in24.4 mm
07:47 PM 44.8°F7.1°C 44.5°F6.9°C 99% 2.6 mph WSW4.2 kmh WSW 5.7 mph9.2 kmh 30.05 in1017.6 mb 0.00 in0.0 mm 0.00 in/hr0.0 mm/hr 0.96 in24.4 mm
07:57 PM 45.0°F7.2°C 44.7°F7.1°C 99% 3.6 mph WSW5.8 kmh WSW 8.1 mph13.0 kmh 30.04 in1017.3 mb 0.00 in0.0 mm 0.00 in/hr0.0 mm/hr 0.96 in24.4 mm
08:07 PM 45.0°F7.2°C 44.7°F7.1°C 99% 3.3 mph SW5.3 kmh SW 4.7 mph7.6 kmh 30.05 in1017.6 mb 0.00 in0.0 mm 0.00 in/hr0.0 mm/hr 0.96 in24.4 mm
08:17 PM 45.0°F7.2°C 44.7°F7.1°C 99% 1.6 mph W2.6 kmh W 3.4 mph5.5 kmh 30.06 in1017.9 mb 0.00 in0.0 mm 0.00 in/hr0.0 mm/hr 0.96 in24.4 mm
08:27 PM 45.0°F7.2°C 44.7°F7.1°C 99% 1.7 mph W2.7 kmh W 4.7 mph7.6 kmh 30.06 in1017.9 mb 0.00 in0.0 mm 0.00 in/hr0.0 mm/hr 0.96 in24.4 mm
08:37 PM 45.1°F7.3°C 44.9°F7.2°C 99% 1.6 mph WSW2.6 kmh WSW 3.4 mph5.5 kmh 30.06 in1017.9 mb 0.00 in0.0 mm 0.00 in/hr0.0 mm/hr 0.96 in24.4 mm
08:47 PM 45.1°F7.3°C 44.9°F7.2°C 99% 1.9 mph WSW3.1 kmh WSW 5.7 mph9.2 kmh 30.06 in1017.9 mb 0.00 in0.0 mm 0.00 in/hr0.0 mm/hr 0.96 in24.4 mm
08:57 PM 45.1°F7.3°C 44.9°F7.2°C 99% 2.3 mph W3.7 kmh W 5.7 mph9.2 kmh 30.06 in1017.9 mb 0.00 in0.0 mm 0.00 in/hr0.0 mm/hr 0.96 in24.4 mm
09:07 PM 45.3°F7.4°C 45.1°F7.3°C 99% 2.3 mph NW3.7 kmh NW 3.4 mph5.5 kmh 30.06 in1017.9 mb 0.00 in0.0 mm 0.00 in/hr0.0 mm/hr 0.96 in24.4 mm
09:17 PM 45.3°F7.4°C 45.1°F7.3°C 99% 1.4 mph WNW2.3 kmh WNW 3.4 mph5.5 kmh 30.06 in1017.9 mb 0.00 in0.0 mm 0.00 in/hr0.0 mm/hr 0.96 in24.4 mm
09:27 PM 45.3°F7.4°C 45.1°F7.3°C 99% 1.5 mph WSW2.4 kmh WSW 4.7 mph7.6 kmh 30.06 in1017.9 mb 0.00 in0.0 mm 0.00 in/hr0.0 mm/hr 0.96 in24.4 mm
09:37 PM 45.3°F7.4°C 45.1°F7.3°C 99% 0.6 mph WNW1.0 kmh WNW 2.3 mph3.7 kmh 30.06 in1017.9 mb 0.00 in0.0 mm 0.00 in/hr0.0 mm/hr 0.96 in24.4 mm
09:47 PM 45.3°F7.4°C 45.1°F7.3°C 99% 1.0 mph WNW1.6 kmh WNW 4.7 mph7.6 kmh 30.06 in1017.9 mb 0.00 in0.0 mm 0.00 in/hr0.0 mm/hr 0.96 in24.4 mm
09:57 PM 45.3°F7.4°C 45.1°F7.3°C 99% 0.7 mph WSW1.1 kmh WSW 2.3 mph3.7 kmh 30.06 in1017.9 mb 0.00 in0.0 mm 0.00 in/hr0.0 mm/hr 0.96 in24.4 mm
10:07 PM 45.3°F7.4°C 45.1°F7.3°C 99% 0.8 mph WSW1.3 kmh WSW 1.0 mph1.6 kmh 30.06 in1017.9 mb 0.00 in0.0 mm 0.00 in/hr0.0 mm/hr 0.96 in24.4 mm
10:17 PM 45.5°F7.5°C 45.2°F7.3°C 99% 1.3 mph WSW2.1 kmh WSW 4.7 mph7.6 kmh 30.07 in1018.3 mb 0.00 in0.0 mm 0.00 in/hr0.0 mm/hr 0.96 in24.4 mm
10:27 PM 45.5°F7.5°C 45.2°F7.3°C 99% 1.3 mph SW2.1 kmh SW 2.3 mph3.7 kmh 30.06 in1017.9 mb 0.00 in0.0 mm 0.00 in/hr0.0 mm/hr 0.96 in24.4 mm
10:37 PM 45.5°F7.5°C 45.2°F7.3°C 99% 1.0 mph NW1.6 kmh NW 3.4 mph5.5 kmh 30.07 in1018.3 mb 0.00 in0.0 mm 0.00 in/hr0.0 mm/hr 0.96 in24.4 mm
10:47 PM 45.7°F7.6°C 45.4°F7.4°C 99% 1.4 mph W2.3 kmh W 3.4 mph5.5 kmh 30.07 in1018.3 mb 0.00 in0.0 mm 0.00 in/hr0.0 mm/hr 0.96 in24.4 mm
10:57 PM 45.7°F7.6°C 45.4°F7.4°C 99% 0.8 mph W1.3 kmh W 2.3 mph3.7 kmh 30.07 in1018.3 mb 0.00 in0.0 mm 0.00 in/hr0.0 mm/hr 0.96 in24.4 mm
11:07 PM 45.7°F7.6°C 45.4°F7.4°C 99% 0.3 mph WSW0.5 kmh WSW 2.3 mph3.7 kmh 30.08 in1018.6 mb 0.00 in0.0 mm 0.00 in/hr0.0 mm/hr 0.00 in0.0 mm
11:17 PM 45.7°F7.6°C 45.4°F7.4°C 99% 1.0 mph NNW1.6 kmh NNW 2.3 mph3.7 kmh 30.08 in1018.6 mb 0.00 in0.0 mm 0.00 in/hr0.0 mm/hr 0.00 in0.0 mm
11:27 PM 45.7°F7.6°C 45.4°F7.4°C 99% 1.2 mph NW1.9 kmh NW 2.3 mph3.7 kmh 30.09 in1019.0 mb 0.00 in0.0 mm 0.00 in/hr0.0 mm/hr 0.00 in0.0 mm
11:37 PM 45.9°F7.7°C 45.6°F7.6°C 99% 1.2 mph SW1.9 kmh SW 4.7 mph7.6 kmh 30.09 in1019.0 mb 0.00 in0.0 mm 0.00 in/hr0.0 mm/hr 0.00 in0.0 mm
11:47 PM 46.0°F7.8°C 45.8°F7.7°C 99% 2.6 mph NNE4.2 kmh NNE 5.7 mph9.2 kmh 30.09 in1019.0 mb 0.00 in0.0 mm 0.00 in/hr0.0 mm/hr 0.00 in0.0 mm
11:57 PM 46.0°F7.8°C 45.8°F7.7°C 99% 2.2 mph W3.5 kmh W 4.7 mph7.6 kmh 30.09 in1019.0 mb 0.00 in0.0 mm 0.00 in/hr0.0 mm/hr 0.00 in0.0 mm